Time;durP1;ratioP1;P1;durP2;ratioP2;P2;SDS_P1;SDS_P2;PMS_P1;PMS_P2;Temp;Humidity;BMP_temperature;BMP_pressure;BME280_temperature;BME280_humidity;BME280_pressure;Samples;Min_cycle;Max_cycle;Signal;HPM_P1;HPM_P2
2021/03/23 00:01:15;;;;;;;8.47;1.83;;;18.90;99.90;;;;;;5074244;28;20515;-70
2021/03/23 00:03:49;;;;;;;15.90;2.03;;;19.00;99.90;;;;;;5073106;28;20518;-71
2021/03/23 00:06:22;;;;;;;13.23;1.73;;;18.90;99.90;;;;;;5073687;28;20481;-69
2021/03/23 00:08:53;;;;;;;13.90;2.77;;;18.90;99.90;;;;;;5053565;28;20265;-69
2021/03/23 00:11:34;;;;;;;18.87;2.33;;;18.90;99.90;;;;;;5055266;28;20643;-71
2021/03/23 00:14:05;;;;;;;13.17;2.00;;;19.00;99.90;;;;;;5073956;28;20230;-70
2021/03/23 00:16:44;;;;;;;18.53;2.60;;;19.00;99.90;;;;;;5073446;28;20223;-71
2021/03/23 00:19:13;;;;;;;18.67;2.87;;;18.90;99.90;;;;;;5072451;28;20684;-71
2021/03/23 00:21:41;;;;;;;21.77;3.07;;;18.90;99.90;;;;;;5068775;28;20215;-69
2021/03/23 00:24:08;;;;;;;26.27;3.50;;;19.00;99.90;;;;;;5060291;28;20183;-70
2021/03/23 00:26:36;;;;;;;15.37;2.53;;;18.90;99.90;;;;;;5073876;28;20600;-69
2021/03/23 00:29:04;;;;;;;24.77;3.53;;;19.00;99.90;;;;;;5073256;28;20712;-68
2021/03/23 00:31:33;;;;;;;18.80;3.50;;;19.00;99.90;;;;;;5070075;28;20197;-70
2021/03/23 00:34:03;;;;;;;24.97;3.20;;;19.00;99.90;;;;;;5071317;28;20178;-68
2021/03/23 00:36:42;;;;;;;15.37;2.87;;;19.00;99.90;;;;;;5072356;28;20624;-71
2021/03/23 00:39:11;;;;;;;19.50;3.67;;;19.00;99.90;;;;;;5073285;28;20533;-71
2021/03/23 00:41:42;;;;;;;16.33;2.70;;;19.00;99.90;;;;;;5072765;28;20174;-69
2021/03/23 00:44:12;;;;;;;23.80;3.10;;;19.00;99.90;;;;;;5073019;28;20232;-68
2021/03/23 00:46:39;;;;;;;21.67;3.70;;;19.00;99.90;;;;;;5072939;28;20266;-69
2021/03/23 00:49:07;;;;;;;27.23;3.70;;;19.00;99.90;;;;;;5072036;28;20244;-69
2021/03/23 00:51:34;;;;;;;17.23;2.87;;;19.00;99.90;;;;;;5072202;28;20239;-69
2021/03/23 00:54:02;;;;;;;19.13;3.77;;;19.00;99.90;;;;;;5072996;28;20194;-69
2021/03/23 00:56:29;;;;;;;25.27;3.33;;;19.00;99.90;;;;;;5072969;28;20685;-69
2021/03/23 00:58:57;;;;;;;18.07;3.07;;;19.00;99.90;;;;;;5072493;28;20190;-70
2021/03/23 01:01:24;;;;;;;17.67;3.70;;;19.00;99.90;;;;;;5069521;28;20704;-71
2021/03/23 01:03:51;;;;;;;15.17;2.67;;;19.00;99.90;;;;;;5063000;28;20187;-69
2021/03/23 01:06:19;;;;;;;19.37;2.33;;;19.00;99.90;;;;;;5071259;28;20266;-71
2021/03/23 01:09:22;;;;;;;15.10;2.97;;;19.00;99.90;;;;;;5071694;28;20185;-71
2021/03/23 01:11:50;;;;;;;15.03;2.10;;;19.00;99.90;;;;;;5072384;28;20225;-72
2021/03/23 01:14:17;;;;;;;17.80;2.97;;;19.10;99.90;;;;;;5072903;28;20206;-71
2021/03/23 01:16:44;;;;;;;18.93;2.53;;;19.00;99.90;;;;;;5072526;28;20210;-72
2021/03/23 01:19:12;;;;;;;17.73;2.77;;;19.00;99.90;;;;;;5071482;28;20540;-69
2021/03/23 01:21:39;;;;;;;13.23;2.80;;;19.10;99.90;;;;;;5072634;28;20243;-71
2021/03/23 01:24:08;;;;;;;18.47;2.63;;;19.00;99.90;;;;;;5072587;28;20167;-70
2021/03/23 01:26:36;;;;;;;17.53;2.23;;;19.00;99.90;;;;;;5072458;28;20179;-72
2021/03/23 01:29:03;;;;;;;12.57;1.97;;;19.00;99.90;;;;;;5072182;28;20246;-69
2021/03/23 01:31:30;;;;;;;14.93;2.80;;;19.00;99.90;;;;;;5072442;28;20183;-67
2021/03/23 01:33:58;;;;;;;16.93;2.50;;;19.00;99.90;;;;;;5071171;28;20179;-67
2021/03/23 01:36:25;;;;;;;17.20;2.10;;;19.00;99.90;;;;;;5072306;28;20207;-69
2021/03/23 01:38:53;;;;;;;10.97;2.00;;;19.00;99.90;;;;;;5072219;28;20171;-69
2021/03/23 01:41:20;;;;;;;11.73;2.33;;;19.10;99.90;;;;;;5071536;28;20510;-69
2021/03/23 01:43:47;;;;;;;10.00;1.57;;;19.00;99.90;;;;;;5052240;28;20556;-69
2021/03/23 01:46:41;;;;;;;11.43;2.13;;;19.00;99.90;;;;;;5063395;28;20183;-69
2021/03/23 01:49:14;;;;;;;9.93;1.60;;;19.10;99.90;;;;;;5071122;28;20653;-70
2021/03/23 01:51:43;;;;;;;11.00;2.13;;;19.10;99.90;;;;;;5072502;28;20167;-69
2021/03/23 01:54:25;;;;;;;8.67;1.50;;;19.10;99.90;;;;;;5072344;28;20179;-70
2021/03/23 01:56:55;;;;;;;10.10;1.50;;;19.00;99.90;;;;;;5070716;28;20268;-68
2021/03/23 01:59:23;;;;;;;9.60;1.83;;;19.00;99.90;;;;;;5071072;28;20186;-70
2021/03/23 02:01:52;;;;;;;9.10;1.53;;;19.10;99.90;;;;;;5071483;28;20194;-69
2021/03/23 02:04:19;;;;;;;13.40;4.23;;;19.10;99.90;;;;;;5072152;28;20232;-71
2021/03/23 02:06:49;;;;;;;8.17;1.70;;;19.10;99.90;;;;;;5070955;28;20179;-68
2021/03/23 02:09:25;;;;;;;9.87;2.00;;;19.10;99.90;;;;;;5072155;28;20536;-67
2021/03/23 02:12:08;;;;;;;14.80;1.40;;;19.10;99.90;;;;;;5070548;28;20665;-70
2021/03/23 02:14:44;;;;;;;16.00;1.50;;;19.10;99.90;;;;;;5072191;28;20179;-68
2021/03/23 02:17:19;;;;;;;10.50;1.33;;;19.10;99.90;;;;;;5071842;28;20187;-69
2021/03/23 02:19:47;;;;;;;6.67;1.60;;;19.10;99.90;;;;;;5070615;28;20573;-68
2021/03/23 02:22:29;;;;;;;5.27;1.50;;;19.20;99.90;;;;;;5071922;28;20171;-69
2021/03/23 02:24:56;;;;;;;4.87;1.17;;;19.20;99.90;;;;;;5070947;28;20676;-69
2021/03/23 02:27:27;;;;;;;9.10;1.30;;;19.30;99.90;;;;;;5074762;28;20223;-68
2021/03/23 02:29:58;;;;;;;8.33;5.03;;;19.30;99.90;;;;;;5075799;28;20241;-71
2021/03/23 02:32:25;;;;;;;5.53;1.77;;;19.20;99.90;;;;;;5075190;28;20655;-69
2021/03/23 02:34:53;;;;;;;9.70;1.97;;;19.20;99.90;;;;;;5074842;28;20205;-70
2021/03/23 02:37:38;;;;;;;6.83;1.50;;;19.30;99.90;;;;;;5074828;28;20726;-71
2021/03/23 02:40:08;;;;;;;5.73;1.20;;;19.20;99.90;;;;;;5069610;28;20184;-69
2021/03/23 02:42:35;;;;;;;7.80;1.30;;;19.20;99.90;;;;;;5055767;28;20185;-70
2021/03/23 02:45:03;;;;;;;7.17;1.67;;;19.20;99.90;;;;;;5069136;28;20185;-70
2021/03/23 02:47:30;;;;;;;5.13;1.20;;;19.20;99.90;;;;;;5075445;28;20239;-72
2021/03/23 02:49:57;;;;;;;8.53;1.87;;;19.20;99.90;;;;;;5072504;28;20187;-71
2021/03/23 02:52:25;;;;;;;5.17;1.50;;;19.20;99.90;;;;;;5075584;28;20257;-70
2021/03/23 02:54:52;;;;;;;10.80;1.40;;;19.20;99.90;;;;;;5074969;28;20184;-69
2021/03/23 02:57:19;;;;;;;4.07;1.37;;;19.20;99.90;;;;;;5074664;28;20217;-71
2021/03/23 02:59:47;;;;;;;6.70;1.63;;;19.30;99.90;;;;;;5074986;28;20194;-67
2021/03/23 03:02:14;;;;;;;5.40;1.97;;;19.20;99.90;;;;;;5072482;28;20544;-71
2021/03/23 03:04:43;;;;;;;9.13;2.97;;;19.20;99.90;;;;;;5071206;28;20179;-68
2021/03/23 03:07:11;;;;;;;6.40;2.13;;;19.20;99.90;;;;;;5075181;28;20179;-67
2021/03/23 03:09:38;;;;;;;9.47;1.87;;;19.30;99.90;;;;;;5074248;28;20187;-68
2021/03/23 03:12:06;;;;;;;9.67;1.50;;;19.30;99.90;;;;;;5075463;28;20723;-70
2021/03/23 03:14:33;;;;;;;5.93;1.30;;;19.20;99.90;;;;;;5075107;28;20190;-69
2021/03/23 03:17:01;;;;;;;5.67;1.30;;;19.20;99.90;;;;;;5074660;28;20211;-70
2021/03/23 03:19:28;;;;;;;6.03;1.57;;;19.30;99.90;;;;;;5075119;28;20578;-70
2021/03/23 03:21:55;;;;;;;5.10;1.70;;;19.30;99.90;;;;;;5075290;28;20187;-70
2021/03/23 03:24:23;;;;;;;5.23;1.37;;;19.30;99.90;;;;;;5073055;28;20629;-69
2021/03/23 03:26:50;;;;;;;6.43;1.97;;;19.20;99.90;;;;;;5073624;28;20295;-70
2021/03/23 03:29:18;;;;;;;10.70;6.23;;;19.20;99.90;;;;;;5073726;28;20688;-70
2021/03/23 03:31:45;;;;;;;9.57;4.33;;;19.30;99.90;;;;;;5068409;28;20525;-70
2021/03/23 03:34:12;;;;;;;5.80;1.60;;;19.30;99.90;;;;;;5070843;28;20190;-70
2021/03/23 03:36:40;;;;;;;5.53;1.73;;;19.30;99.90;;;;;;5071149;28;20827;-69
2021/03/23 03:39:07;;;;;;;6.90;1.37;;;19.40;99.90;;;;;;5071844;28;20187;-69
2021/03/23 03:41:36;;;;;;;7.50;1.40;;;19.40;99.90;;;;;;5066787;28;20197;-69
2021/03/23 03:44:04;;;;;;;4.80;1.30;;;19.40;99.90;;;;;;5072493;28;20198;-69
2021/03/23 03:46:32;;;;;;;6.70;1.47;;;19.50;99.90;;;;;;5073021;28;20183;-69
2021/03/23 03:48:59;;;;;;;4.80;1.30;;;19.50;99.90;;;;;;5072809;28;20191;-70
2021/03/23 03:51:26;;;;;;;7.10;1.20;;;19.60;99.90;;;;;;5073226;28;20183;-69
2021/03/23 03:53:54;;;;;;;3.80;1.20;;;19.60;99.90;;;;;;5072375;28;20221;-69
2021/03/23 03:56:21;;;;;;;3.67;1.07;;;19.60;99.90;;;;;;5070270;28;20211;-68
2021/03/23 03:58:49;;;;;;;4.47;1.20;;;19.60;99.90;;;;;;5070399;28;20214;-67
2021/03/23 04:01:16;;;;;;;4.63;1.13;;;19.60;99.90;;;;;;5071013;28;20377;-67
2021/03/23 04:03:43;;;;;;;5.20;0.97;;;19.80;99.90;;;;;;5070893;28;20184;-68
2021/03/23 04:06:11;;;;;;;3.80;1.00;;;19.80;99.90;;;;;;5070142;28;20263;-67
2021/03/23 04:08:39;;;;;;;3.37;0.87;;;19.90;99.90;;;;;;5071895;28;20180;-67
2021/03/23 04:11:09;;;;;;;3.70;0.73;;;20.00;99.90;;;;;;5069910;28;20253;-67
2021/03/23 04:13:36;;;;;;;5.47;0.90;;;20.00;99.90;;;;;;5070686;28;20616;-68
2021/03/23 04:16:05;;;;;;;4.63;1.27;;;20.10;99.90;;;;;;5069695;28;20719;-67
2021/03/23 04:18:33;;;;;;;3.50;1.17;;;20.20;99.90;;;;;;5066264;28;20175;-68
2021/03/23 04:21:03;;;;;;;5.00;1.20;;;20.30;99.90;;;;;;5070395;28;20187;-68
2021/03/23 04:23:39;;;;;;;8.63;1.57;;;20.40;99.90;;;;;;5072385;28;20189;-68
2021/03/23 04:26:08;;;;;;;5.80;1.67;;;20.50;99.90;;;;;;5073360;28;20179;-69
2021/03/23 04:28:38;;;;;;;7.90;2.03;;;20.50;99.90;;;;;;5073550;28;20231;-66
2021/03/23 04:31:06;;;;;;;6.20;1.47;;;20.50;99.90;;;;;;5073520;28;20676;-69
2021/03/23 04:33:34;;;;;;;6.43;1.80;;;20.50;99.90;;;;;;5072305;28;20171;-69
2021/03/23 04:36:07;;;;;;;6.10;1.80;;;20.40;99.90;;;;;;5073569;28;20221;-69
2021/03/23 04:38:37;;;;;;;4.40;1.80;;;20.40;99.90;;;;;;5067334;28;20241;-70
2021/03/23 04:41:09;;;;;;;5.03;1.93;;;20.40;99.90;;;;;;5072084;28;20585;-70
2021/03/23 04:43:42;;;;;;;8.60;2.53;;;20.40;99.90;;;;;;5072584;28;20641;-68
2021/03/23 04:46:11;;;;;;;8.63;3.13;;;20.30;99.90;;;;;;5072370;28;20198;-69
2021/03/23 04:48:38;;;;;;;7.17;2.60;;;20.40;99.90;;;;;;5070378;28;20183;-69
2021/03/23 04:51:09;;;;;;;11.13;3.03;;;20.30;99.90;;;;;;5071236;28;20198;-70
2021/03/23 04:53:39;;;;;;;12.90;3.00;;;20.30;99.90;;;;;;5071450;28;20198;-68
2021/03/23 04:56:08;;;;;;;14.10;6.73;;;20.30;99.90;;;;;;5070238;28;20241;-68
2021/03/23 04:58:35;;;;;;;10.90;4.60;;;20.40;99.90;;;;;;5071884;28;20207;-71
2021/03/23 05:01:02;;;;;;;6.33;2.77;;;20.40;99.90;;;;;;5071923;28;20171;-69
2021/03/23 05:03:33;;;;;;;13.10;3.40;;;20.40;99.90;;;;;;5072549;28;20263;-70
2021/03/23 05:06:07;;;;;;;11.47;3.20;;;20.40;99.90;;;;;;5072772;28;20179;-69
2021/03/23 05:08:37;;;;;;;8.87;3.30;;;20.30;99.90;;;;;;5072686;28;20641;-70
2021/03/23 05:11:05;;;;;;;9.70;3.20;;;20.30;99.90;;;;;;5070810;28;20179;-70
2021/03/23 05:13:33;;;;;;;16.03;3.87;;;20.30;99.90;;;;;;5053041;28;20167;-68
2021/03/23 05:16:01;;;;;;;10.00;3.57;;;20.30;99.90;;;;;;5065218;28;20318;-68
2021/03/23 05:18:28;;;;;;;9.17;4.03;;;20.40;99.90;;;;;;5070337;28;20583;-69
2021/03/23 05:20:56;;;;;;;13.67;3.60;;;20.50;99.90;;;;;;5069388;28;20183;-68
2021/03/23 05:23:23;;;;;;;9.83;3.60;;;20.40;99.90;;;;;;5070508;28;20253;-70
2021/03/23 05:25:52;;;;;;;13.40;3.97;;;20.40;99.90;;;;;;5070335;28;20198;-71
2021/03/23 05:28:19;;;;;;;9.20;3.57;;;20.50;99.90;;;;;;5069672;28;20221;-69
2021/03/23 05:30:48;;;;;;;11.57;4.20;;;20.40;99.90;;;;;;5069823;28;20241;-70
2021/03/23 05:33:16;;;;;;;13.07;4.20;;;20.40;99.90;;;;;;5069116;28;20271;-71
2021/03/23 05:35:43;;;;;;;16.73;5.13;;;20.50;99.90;;;;;;5062324;28;20207;-67
2021/03/23 05:38:11;;;;;;;10.27;4.50;;;20.40;99.90;;;;;;5070373;28;20664;-69
2021/03/23 05:40:45;;;;;;;10.73;4.13;;;20.40;99.90;;;;;;5068326;28;20175;-67
2021/03/23 05:43:40;;;;;;;12.97;4.20;;;20.40;99.90;;;;;;5070849;28;20792;-70
2021/03/23 05:46:16;;;;;;;14.70;4.13;;;20.40;99.90;;;;;;5062551;28;20240;-70
2021/03/23 05:49:25;;;;;;;13.33;4.03;;;20.50;99.90;;;;;;5070572;28;20205;-68
2021/03/23 05:52:19;;;;;;;15.33;6.07;;;20.50;99.90;;;;;;5069356;28;20313;-67
2021/03/23 05:55:10;;;;;;;15.27;8.63;;;20.50;99.90;;;;;;5065376;28;20183;-71
2021/03/23 05:57:46;;;;;;;15.73;5.00;;;20.50;99.90;;;;;;5069171;28;20646;-72
2021/03/23 06:00:28;;;;;;;14.07;5.20;;;20.50;99.90;;;;;;5070342;28;20536;-71
2021/03/23 06:03:13;;;;;;;19.53;4.83;;;20.50;99.90;;;;;;5065590;28;20180;-72
2021/03/23 06:05:46;;;;;;;20.73;5.27;;;20.60;99.90;;;;;;5069876;28;20504;-71
2021/03/23 06:08:37;;;;;;;18.80;5.30;;;20.60;99.90;;;;;;5069656;28;20201;-70
2021/03/23 06:11:21;;;;;;;15.63;5.27;;;20.50;99.90;;;;;;5059752;28;20190;-71
2021/03/23 06:14:13;;;;;;;17.20;5.57;;;20.60;99.90;;;;;;5070275;28;20211;-71
2021/03/23 06:16:52;;;;;;;21.07;5.83;;;20.60;99.90;;;;;;5069520;28;20247;-72
2021/03/23 06:19:44;;;;;;;19.00;6.60;;;20.50;99.90;;;;;;5066893;28;20179;-70
2021/03/23 06:22:44;;;;;;;19.47;6.60;;;20.50;99.90;;;;;;5069608;28;20183;-67
2021/03/23 06:25:26;;;;;;;25.50;6.50;;;20.50;99.90;;;;;;5069731;28;20202;-69
2021/03/23 06:27:57;;;;;;;31.27;13.67;;;20.50;99.90;;;;;;5064833;28;20310;-71
2021/03/23 06:30:51;;;;;;;13.23;6.60;;;20.60;99.90;;;;;;5070425;28;20199;-69
2021/03/23 06:33:23;;;;;;;15.67;6.13;;;20.60;99.90;;;;;;5068440;28;20653;-71
2021/03/23 06:36:00;;;;;;;18.90;5.27;;;20.60;99.90;;;;;;5065726;28;20200;-67
2021/03/23 06:38:31;;;;;;;28.20;7.03;;;20.60;99.90;;;;;;5070601;28;20187;-69
2021/03/23 06:41:19;;;;;;;19.47;6.17;;;20.50;99.90;;;;;;5069126;28;20270;-66
2021/03/23 06:43:51;;;;;;;16.80;6.10;;;20.50;99.90;;;;;;5064214;28;20183;-66
2021/03/23 06:46:27;;;;;;;19.10;6.90;;;20.50;99.90;;;;;;5069888;28;20191;-69
2021/03/23 06:49:16;;;;;;;17.97;7.30;;;20.60;99.90;;;;;;5067546;28;20178;-70
2021/03/23 06:52:01;;;;;;;18.80;6.27;;;20.60;99.90;;;;;;5065599;28;20194;-69
2021/03/23 06:54:32;;;;;;;25.77;6.77;;;20.60;99.90;;;;;;5065961;28;20649;-66
2021/03/23 06:57:02;;;;;;;23.77;5.77;;;20.70;99.90;;;;;;5071294;28;20539;-68
2021/03/23 06:59:33;;;;;;;17.63;6.07;;;20.80;99.90;;;;;;5071353;28;20183;-69
2021/03/23 07:02:02;;;;;;;22.37;6.20;;;20.90;99.90;;;;;;5070861;28;20244;-67
2021/03/23 07:04:41;;;;;;;19.70;5.70;;;20.90;99.90;;;;;;5068617;28;20759;-71
2021/03/23 07:07:22;;;;;;;16.47;5.63;;;20.90;99.90;;;;;;5071588;28;20178;-68
2021/03/23 07:09:59;;;;;;;22.83;5.40;;;20.90;99.90;;;;;;5071106;28;20183;-70
2021/03/23 07:12:40;;;;;;;19.23;6.03;;;21.00;99.90;;;;;;5053545;28;20293;-69
2021/03/23 07:15:15;;;;;;;14.90;5.63;;;21.00;99.90;;;;;;5073844;28;20209;-66
2021/03/23 07:17:48;;;;;;;16.23;5.33;;;21.00;99.90;;;;;;5074807;28;20261;-69
2021/03/23 07:20:25;;;;;;;17.10;5.60;;;20.90;99.90;;;;;;5073388;28;20313;-69
2021/03/23 07:22:53;;;;;;;17.27;5.53;;;20.80;99.90;;;;;;5074230;28;20182;-70
2021/03/23 07:25:42;;;;;;;22.07;5.43;;;20.70;99.90;;;;;;5075191;28;20203;-70
2021/03/23 07:28:36;;;;;;;22.20;5.97;;;20.70;99.90;;;;;;5071887;28;20221;-71
2021/03/23 07:31:16;;;;;;;21.63;5.30;;;20.60;99.90;;;;;;5073281;28;20179;-70
2021/03/23 07:33:43;;;;;;;19.53;4.87;;;20.60;99.90;;;;;;5074801;28;20179;-70
2021/03/23 07:36:14;;;;;;;18.60;4.73;;;20.50;99.90;;;;;;5073799;28;20199;-69
2021/03/23 07:39:07;;;;;;;21.90;5.97;;;20.50;99.90;;;;;;5074421;28;20192;-69
2021/03/23 07:41:48;;;;;;;21.70;6.27;;;20.50;99.90;;;;;;5074367;28;20215;-70
2021/03/23 07:44:39;;;;;;;18.57;5.57;;;20.50;99.90;;;;;;5074667;28;20649;-70
2021/03/23 07:47:30;;;;;;;19.93;5.17;;;20.40;99.90;;;;;;5071406;28;20209;-66
2021/03/23 07:50:16;;;;;;;21.57;11.17;;;20.40;99.90;;;;;;5074722;28;20191;-69
2021/03/23 07:52:55;;;;;;;23.50;6.07;;;20.40;99.90;;;;;;5071141;28;20767;-69
2021/03/23 07:55:26;;;;;;;19.93;5.53;;;20.40;99.90;;;;;;5065256;28;20222;-70
2021/03/23 07:58:11;;;;;;;20.37;4.70;;;20.30;99.90;;;;;;5074148;28;20297;-70
2021/03/23 08:01:04;;;;;;;21.40;5.40;;;20.30;99.90;;;;;;5059059;28;20171;-69
2021/03/23 08:03:43;;;;;;;28.00;6.97;;;20.20;99.90;;;;;;5074075;28;20218;-70
2021/03/23 08:06:25;;;;;;;15.60;5.17;;;20.20;99.90;;;;;;5072577;28;20225;-69
2021/03/23 08:09:22;;;;;;;25.20;5.70;;;20.20;99.90;;;;;;5071095;28;20187;-67
2021/03/23 08:12:10;;;;;;;22.10;5.47;;;20.20;99.90;;;;;;5065540;28;20183;-66
2021/03/23 08:15:01;;;;;;;22.97;5.43;;;20.20;99.90;;;;;;5069964;28;20179;-67
2021/03/23 08:17:46;;;;;;;12.17;4.57;;;20.10;99.90;;;;;;5070606;28;20766;-68
2021/03/23 08:20:43;;;;;;;21.57;5.33;;;20.10;99.90;;;;;;5066751;28;20269;-68
2021/03/23 08:23:48;;;;;;;18.57;5.57;;;20.10;99.90;;;;;;5072939;28;20565;-67
2021/03/23 08:26:33;;;;;;;21.60;5.40;;;20.10;99.90;;;;;;5034856;28;20215;-66
2021/03/23 08:29:16;;;;;;;17.93;4.93;;;20.10;99.90;;;;;;5068864;28;20230;-67
2021/03/23 08:32:01;;;;;;;21.87;6.30;;;20.00;99.90;;;;;;5072885;28;20176;-67
2021/03/23 08:34:39;;;;;;;24.57;6.20;;;20.10;99.90;;;;;;5073241;28;20183;-68
2021/03/23 08:37:19;;;;;;;23.37;5.90;;;20.10;99.90;;;;;;5072557;28;20315;-67
2021/03/23 08:40:07;;;;;;;23.50;5.77;;;20.10;99.90;;;;;;5068104;28;20193;-67
2021/03/23 08:42:39;;;;;;;20.87;5.30;;;20.00;99.90;;;;;;5072142;28;20214;-68
2021/03/23 08:45:06;;;;;;;16.40;4.80;;;20.10;99.90;;;;;;5071328;28;20642;-67
2021/03/23 08:47:57;;;;;;;23.77;5.53;;;20.10;99.90;;;;;;5071187;28;20672;-67
2021/03/23 08:50:33;;;;;;;19.33;5.30;;;20.10;99.90;;;;;;5071638;28;20582;-67
2021/03/23 08:53:05;;;;;;;16.53;6.10;;;20.10;99.90;;;;;;5059948;28;20638;-67
2021/03/23 08:55:33;;;;;;;13.90;5.73;;;20.10;99.90;;;;;;5069766;28;20218;-67
2021/03/23 08:58:19;;;;;;;18.80;6.03;;;20.00;99.90;;;;;;5072632;28;20277;-69
2021/03/23 09:01:01;;;;;;;20.13;6.50;;;20.00;99.90;;;;;;5069205;28;20229;-67
2021/03/23 09:03:49;;;;;;;18.53;5.80;;;20.00;99.90;;;;;;5070913;28;20187;-67
2021/03/23 09:06:24;;;;;;;21.27;6.30;;;20.00;99.90;;;;;;5066738;28;20182;-67
2021/03/23 09:09:16;;;;;;;18.87;6.17;;;20.00;99.90;;;;;;5071725;28;20207;-67
2021/03/23 09:12:01;;;;;;;29.23;6.77;;;20.00;99.90;;;;;;5070506;28;20260;-67
2021/03/23 09:14:30;;;;;;;26.30;7.30;;;20.00;99.90;;;;;;5063129;28;20278;-67
2021/03/23 09:17:02;;;;;;;23.50;7.33;;;20.00;99.90;;;;;;5071665;28;20215;-68
2021/03/23 09:19:37;;;;;;;18.27;7.10;;;20.10;99.90;;;;;;5070286;28;20190;-70
2021/03/23 09:22:06;;;;;;;20.47;6.27;;;20.00;99.90;;;;;;5067445;28;20209;-68
2021/03/23 09:24:39;;;;;;;23.37;10.77;;;20.10;99.90;;;;;;5062579;28;20167;-70
2021/03/23 09:27:30;;;;;;;21.30;8.63;;;20.10;99.90;;;;;;5071760;28;20183;-71
2021/03/23 09:29:57;;;;;;;18.97;6.77;;;20.10;99.90;;;;;;5072392;28;20279;-71
2021/03/23 09:32:28;;;;;;;22.33;7.30;;;20.20;99.90;;;;;;5072165;28;20202;-70
2021/03/23 09:35:13;;;;;;;24.57;6.93;;;20.20;99.90;;;;;;5071697;28;20187;-70
2021/03/23 09:38:04;;;;;;;20.50;6.10;;;20.10;99.90;;;;;;5060817;28;20198;-70
2021/03/23 09:40:40;;;;;;;15.13;6.20;;;20.20;99.90;;;;;;5072201;28;20182;-69
2021/03/23 09:43:29;;;;;;;20.60;6.33;;;20.10;99.90;;;;;;5063661;28;20231;-70
2021/03/23 09:46:13;;;;;;;16.93;6.87;;;20.20;99.90;;;;;;5064339;28;20187;-71
2021/03/23 09:48:56;;;;;;;17.93;6.37;;;20.20;99.90;;;;;;5068518;28;20233;-69
2021/03/23 09:51:23;;;;;;;18.57;6.40;;;20.20;99.90;;;;;;5071693;28;20194;-70
2021/03/23 09:53:53;;;;;;;17.33;7.40;;;20.10;99.90;;;;;;5072046;28;20267;-69
2021/03/23 09:56:26;;;;;;;21.80;8.77;;;20.10;99.90;;;;;;5070819;28;20211;-70
2021/03/23 09:59:22;;;;;;;16.87;6.27;;;20.10;99.90;;;;;;5071466;28;20191;-70
2021/03/23 10:01:58;;;;;;;12.30;6.40;;;20.20;99.90;;;;;;5071029;28;20190;-70
2021/03/23 10:04:27;;;;;;;15.70;5.80;;;20.10;99.90;;;;;;5058747;28;20175;-70
2021/03/23 10:06:56;;;;;;;17.97;6.83;;;20.10;99.90;;;;;;5072073;28;20175;-70
2021/03/23 10:09:30;;;;;;;17.07;6.53;;;20.20;99.90;;;;;;5071343;28;20186;-70
2021/03/23 10:11:59;;;;;;;20.73;6.37;;;20.10;99.90;;;;;;5072209;28;20210;-70
2021/03/23 10:14:29;;;;;;;17.43;6.33;;;20.10;99.90;;;;;;5072040;28;20194;-71
2021/03/23 10:17:08;;;;;;;13.77;6.10;;;20.20;99.90;;;;;;5071748;28;20232;-71
2021/03/23 10:19:42;;;;;;;15.93;5.33;;;20.20;99.90;;;;;;5071913;28;20279;-70
2021/03/23 10:22:27;;;;;;;15.87;6.37;;;20.10;99.90;;;;;;5072267;28;20256;-71
2021/03/23 10:24:59;;;;;;;16.00;7.40;;;20.10;99.90;;;;;;5058267;28;20167;-70
2021/03/23 10:27:34;;;;;;;15.80;6.40;;;20.10;99.90;;;;;;5070997;28;20218;-71
2021/03/23 10:30:12;;;;;;;15.80;6.33;;;20.00;99.90;;;;;;5057958;28;20521;-68
2021/03/23 10:32:51;;;;;;;13.23;6.50;;;20.00;99.90;;;;;;5071288;28;20266;-67
2021/03/23 10:35:49;;;;;;;20.30;6.60;;;19.90;99.90;;;;;;5071605;28;20203;-68
2021/03/23 10:38:25;;;;;;;15.83;6.70;;;20.00;99.90;;;;;;5067426;28;20633;-69
2021/03/23 10:40:55;;;;;;;15.20;5.97;;;19.90;99.90;;;;;;5063496;28;20171;-69
2021/03/23 10:43:42;;;;;;;10.43;6.13;;;19.90;99.90;;;;;;5070271;28;20179;-68
2021/03/23 10:46:27;;;;;;;12.93;6.40;;;19.90;99.90;;;;;;5060273;28;20188;-66
2021/03/23 10:49:10;;;;;;;12.33;6.67;;;19.90;99.90;;;;;;5073187;28;20575;-66
2021/03/23 10:51:42;;;;;;;19.70;7.63;;;19.90;99.90;;;;;;5073128;28;20205;-67
2021/03/23 10:54:12;;;;;;;16.03;7.30;;;19.90;99.90;;;;;;5071455;28;20520;-68
2021/03/23 10:56:45;;;;;;;16.60;6.73;;;19.90;99.90;;;;;;5071748;28;20195;-68
2021/03/23 10:59:26;;;;;;;11.43;6.60;;;19.80;99.90;;;;;;5075182;28;20163;-67
2021/03/23 11:02:16;;;;;;;19.40;6.90;;;19.70;99.90;;;;;;5074895;28;20187;-69
2021/03/23 11:05:08;;;;;;;15.43;7.13;;;19.70;99.90;;;;;;5069334;28;20187;-66
2021/03/23 11:07:38;;;;;;;10.93;5.77;;;19.60;99.90;;;;;;5075188;28;20198;-67
2021/03/23 11:10:10;;;;;;;12.13;5.83;;;19.60;99.90;;;;;;5074867;28;20187;-69
2021/03/23 11:12:37;;;;;;;9.40;5.40;;;19.50;99.90;;;;;;5073708;28;20226;-67
2021/03/23 11:15:06;;;;;;;8.17;5.87;;;19.50;99.90;;;;;;5073755;28;20211;-68
2021/03/23 11:17:44;;;;;;;11.50;6.20;;;19.50;99.90;;;;;;5074828;28;20274;-66
2021/03/23 11:20:25;;;;;;;14.90;6.30;;;19.50;99.90;;;;;;5074171;28;20642;-68
2021/03/23 11:22:53;;;;;;;12.27;6.30;;;19.50;99.90;;;;;;5072161;28;20637;-66
2021/03/23 11:25:24;;;;;;;11.90;6.27;;;19.40;99.90;;;;;;5073822;28;20179;-66
2021/03/23 11:27:53;;;;;;;13.07;6.27;;;19.50;99.90;;;;;;5073709;28;20243;-66
2021/03/23 11:30:21;;;;;;;7.30;5.87;;;19.50;99.90;;;;;;5064649;28;20186;-66
2021/03/23 11:32:49;;;;;;;12.10;5.97;;;19.50;99.90;;;;;;5074208;28;20189;-68
2021/03/23 11:35:18;;;;;;;9.97;5.93;;;19.50;99.90;;;;;;5074211;28;20674;-67
2021/03/23 11:37:46;;;;;;;12.10;6.13;;;19.40;99.90;;;;;;5074641;28;20262;-67
2021/03/23 11:40:14;;;;;;;14.73;6.90;;;19.40;99.90;;;;;;5072527;28;20167;-67
2021/03/23 11:42:45;;;;;;;11.83;6.20;;;19.40;99.90;;;;;;5074011;28;20195;-67
2021/03/23 11:45:19;;;;;;;8.10;5.87;;;19.40;99.90;;;;;;5058604;28;20656;-66
2021/03/23 11:48:12;;;;;;;8.13;5.50;;;19.40;99.90;;;;;;5063781;28;20178;-68
2021/03/23 11:50:42;;;;;;;9.53;5.27;;;19.30;99.90;;;;;;5070987;28;20193;-69
2021/03/23 11:53:10;;;;;;;10.77;6.50;;;19.30;99.90;;;;;;5073162;28;20555;-68
2021/03/23 11:55:44;;;;;;;9.23;6.40;;;19.30;99.90;;;;;;5073956;28;20226;-67
2021/03/23 11:58:14;;;;;;;11.73;6.17;;;19.20;99.90;;;;;;5073684;28;20185;-67
2021/03/23 12:00:41;;;;;;;7.83;6.10;;;19.10;99.90;;;;;;5073839;28;20183;-68
2021/03/23 12:03:13;;;;;;;11.23;6.47;;;19.10;99.90;;;;;;5073702;28;20657;-67
2021/03/23 12:05:42;;;;;;;13.50;5.97;;;19.10;99.90;;;;;;5073452;28;20228;-69
2021/03/23 12:08:29;;;;;;;11.63;6.60;;;19.10;99.90;;;;;;5073764;28;20653;-69
2021/03/23 12:11:27;;;;;;;13.97;6.77;;;19.10;99.90;;;;;;5073345;28;20557;-66
2021/03/23 12:14:18;;;;;;;9.33;6.30;;;19.10;99.90;;;;;;5073869;28;20221;-67
2021/03/23 12:16:45;;;;;;;12.23;6.60;;;19.10;99.90;;;;;;5073627;28;20340;-68
2021/03/23 12:19:15;;;;;;;8.93;6.30;;;19.10;99.90;;;;;;5072492;28;20175;-68
2021/03/23 12:21:43;;;;;;;15.33;7.20;;;19.00;99.90;;;;;;5072641;28;20214;-66
2021/03/23 12:24:11;;;;;;;19.40;6.63;;;19.00;99.90;;;;;;5072505;28;20195;-68
2021/03/23 12:26:39;;;;;;;12.30;6.57;;;19.00;99.90;;;;;;5073324;28;20254;-69
2021/03/23 12:29:06;;;;;;;11.33;6.40;;;18.90;99.90;;;;;;5073771;28;20748;-67
2021/03/23 12:31:34;;;;;;;9.17;6.30;;;18.90;99.90;;;;;;5073571;28;20175;-67
2021/03/23 12:34:01;;;;;;;10.83;6.37;;;18.90;99.90;;;;;;5073744;28;20270;-68
2021/03/23 12:36:29;;;;;;;10.93;6.70;;;18.90;99.90;;;;;;5073411;28;20256;-66
2021/03/23 12:38:56;;;;;;;11.27;6.97;;;18.90;99.90;;;;;;5073132;28;20206;-67
2021/03/23 12:41:35;;;;;;;12.60;7.40;;;18.90;99.90;;;;;;5071741;28;20278;-68
2021/03/23 12:44:04;;;;;;;10.30;6.70;;;18.90;99.90;;;;;;5073125;28;20210;-67
2021/03/23 12:46:31;;;;;;;12.20;6.60;;;18.80;99.90;;;;;;5068226;28;20183;-67
2021/03/23 12:49:00;;;;;;;11.50;6.80;;;18.90;99.90;;;;;;5069870;28;21655;-67
2021/03/23 12:51:51;;;;;;;12.67;6.70;;;18.80;99.90;;;;;;5067008;28;20195;-69
2021/03/23 12:54:24;;;;;;;14.77;8.03;;;18.80;99.90;;;;;;5069569;28;20179;-69
2021/03/23 12:56:52;;;;;;;10.40;6.63;;;18.80;99.90;;;;;;5067963;28;20639;-69
2021/03/23 12:59:28;;;;;;;10.83;7.00;;;18.70;99.90;;;;;;5070241;28;20194;-69
2021/03/23 13:01:56;;;;;;;13.50;6.93;;;18.70;99.90;;;;;;5065192;28;20187;-69
2021/03/23 13:04:26;;;;;;;15.07;7.00;;;18.70;99.90;;;;;;5068099;28;20187;-70
2021/03/23 13:06:57;;;;;;;12.83;6.60;;;18.60;99.90;;;;;;5070475;28;20279;-68
2021/03/23 13:09:27;;;;;;;11.40;6.83;;;18.60;99.90;;;;;;5070917;28;20214;-69
2021/03/23 13:11:55;;;;;;;10.27;6.77;;;18.50;99.90;;;;;;5065969;28;20183;-67
2021/03/23 13:14:25;;;;;;;11.33;8.30;;;18.50;99.90;;;;;;5071788;28;20182;-66
2021/03/23 13:16:54;;;;;;;11.30;7.53;;;18.50;99.90;;;;;;5072246;28;20223;-66